Paranaita, Brazil
Current Conditions -  °F | °C
As of 2:00 PM on Monday 20 Oct 2014 (Local Time) from SBAT Reporting Station
Thunderstorm Thunderstorm  
Wind Chill: 84°   Ceiling: Unl
Heat Index: 88°   Visibility: 6mi
Dew Point: 70°   Wind: 7mph
Humidity: 62%   Direction: 360°N
Pressure: 29.88"   Gusts: NA
Location:  9.66°S, 56.48°W
Report Text: SBAT 201800Z 36006KT 9999 -TSRA SCT030CB 29/21 Q1012
Loading
Personal Weather Stations






























Interactive Weather Map
Tropical Storm Tracking
New forecast layout! Learn more

10-Day Weather Forecast

Advertisements
Track Severe Weather on mobile